Allentown, PA

04:45 EDT dnia 23-maj-2015 (GMT -0400)
South Filmore Street | | Change Station
CLOSE
Current Station
Stacja PWS
Location: Allentown, PA
n.p.m.: 341 ft
Najbliższa stacja pogodowa

Wysokość 341 ft 40.59 °N, 75.45 °W | Updated 58 seconds ago

Clear
pogodnie
45.3 ° F
Odczuwalna 45 ° F
Płn.
2.2
Wiatr zmienny Wiatr od PnWs

Dziś
Wysoka -- | Niska -- ° F
--% Prawdop. opadów
Wczoraj
Wysoka -- | Niska -- ° F
Precip. -- cali
5:38 AM 8:19 PM
Powiększający się sierp Księżyca, 28% visible
Ciśnienie 30.34 cali
Widzialność 10.0 mil
chmury pogodnie
czynnik chłodzący wiatru 45 ° F
Punkt rosy 30 ° F
Wilgotność 56%
Opady deszczu 0.00 cali
grubość pokrywy śnieżnej Niedostępne.
UV 0 z 12
Pyłki 8.80 z 12
Jakość powietrza Niedostępne.
Flu Activity Sporadic
METAR KXLL 230835Z AUTO 35005KT 10SM CLR 08/M02 A3034 RMK AO2

More Conditions Fewer Conditions

Ciśnienie 30.34 cali
Widzialność 10.0 mil
chmury pogodnie
czynnik chłodzący wiatru 45 ° F
Punkt rosy 30 ° F
Wilgotność 56%
Opady deszczu 0.00 cali
grubość pokrywy śnieżnej Niedostępne.
UV 0 z 12
Pyłki 8.80 z 12
Jakość powietrza Niedostępne.
Flu Activity Sporadic
METAR KXLL 230835Z AUTO 35005KT 10SM CLR 08/M02 A3034 RMK AO2

More Conditions Fewer Conditions

10-Day Weather Forecast

Almanac

Astronomia

May. 23, 2015 Wschód Zachów
Aktualny czas
Zmierzch cywilny
Zmierzch żeglarski
świt/zmierzch astronomiczny
Księżyc
całkowite oświetlenie
Długość dnia
Tomorrow will be .
, % of the Moon is Illuminated

Dzisiejsze ekstrema

State Highs State Lows

Community

WunderPhotos

Upload Photos

1,823,403 zdjęcia zostały przesłane!

WunderBlogs® & News

Nearby

Jakość powietrza

  Jakość powietrza czynnik AQ Zanieczyszczenie
Not available.

Głębokość pokrywy śnieżnej

Station Depth n.p.m.

Aktywność sejsmiczna

Miejscowość Distance Mag. Time & Date
Minimum magnitude displayed is 2.5.

Temperatury wody na wybrzeżu

Miejsce Temperatura

Stations

Najbliższa stacja pogodowa

Lokalizacja stacji Temp. czynnik chłodzący wiatru Punkt rosy Wilgotność Wiatr Precip. Wysokość Uaktualniono Typ